Time;durP1;ratioP1;P1;durP2;ratioP2;P2;SDS_P1;SDS_P2;PMS_P1;PMS_P2;Temp;Humidity;BMP_temperature;BMP_pressure;BME280_temperature;BME280_humidity;BME280_pressure;Samples;Min_cycle;Max_cycle;Signal;HPM_P1;HPM_P2
2022/01/10 00:01:57;;;;;;;6.03;2.70;;;;;;;6.95;66.78;100616.63;4924457;28;97233;-51
2022/01/10 00:04:23;;;;;;;14.30;3.90;;;;;;;6.93;66.90;100623.78;4921613;28;101840;-52
2022/01/10 00:06:48;;;;;;;8.80;3.30;;;;;;;6.91;67.32;100627.00;4919524;28;118046;-52
2022/01/10 00:09:13;;;;;;;8.20;3.50;;;;;;;6.91;66.92;100631.69;4925020;28;96756;-52
2022/01/10 00:11:39;;;;;;;9.13;4.20;;;;;;;6.94;66.94;100647.94;4921420;28;97247;-51
2022/01/10 00:14:04;;;;;;;4.50;3.20;;;;;;;6.94;67.16;100644.44;4922678;28;97290;-52
2022/01/10 00:16:29;;;;;;;11.70;3.73;;;;;;;6.90;67.32;100652.84;4918196;28;97204;-51
2022/01/10 00:18:55;;;;;;;6.30;3.00;;;;;;;6.89;66.95;100654.06;4922182;28;110776;-51
2022/01/10 00:21:20;;;;;;;5.97;3.37;;;;;;;6.87;67.23;100653.75;4922287;28;98060;-51
2022/01/10 00:23:45;;;;;;;7.43;4.00;;;;;;;6.86;67.06;100659.72;4919391;28;109277;-51
2022/01/10 00:26:11;;;;;;;6.70;3.50;;;;;;;6.87;67.01;100664.69;4920239;28;97312;-51
2022/01/10 00:28:36;;;;;;;5.93;3.23;;;;;;;6.85;66.78;100669.88;4922666;28;112719;-53
2022/01/10 00:31:01;;;;;;;7.57;3.53;;;;;;;6.85;67.50;100669.13;4923815;28;126436;-52
2022/01/10 00:33:26;;;;;;;6.83;4.30;;;;;;;6.86;66.87;100673.38;4922168;28;97669;-51
2022/01/10 00:35:52;;;;;;;13.00;4.60;;;;;;;6.84;67.10;100679.28;4925696;28;117179;-52
2022/01/10 00:38:17;;;;;;;8.93;4.13;;;;;;;6.85;67.64;100672.63;4922660;28;97669;-52
2022/01/10 00:40:43;;;;;;;7.40;4.40;;;;;;;6.84;67.54;100686.75;4925439;28;97277;-51
2022/01/10 00:43:16;;;;;;;10.70;4.10;;;;;;;6.85;67.40;100689.03;4922807;28;110096;-52
2022/01/10 00:45:42;;;;;;;8.00;4.03;;;;;;;6.87;67.56;100692.03;4923628;28;97410;-52
2022/01/10 00:48:07;;;;;;;5.90;3.70;;;;;;;6.89;67.02;100697.03;4925791;28;118482;-52
2022/01/10 00:50:33;;;;;;;15.17;4.13;;;;;;;6.90;66.98;100691.13;4920500;28;103646;-52
2022/01/10 00:52:59;;;;;;;11.23;5.07;;;;;;;6.90;67.04;100699.34;4925629;28;97515;-52
2022/01/10 00:55:25;;;;;;;11.23;4.00;;;;;;;6.91;67.21;100708.28;4922011;28;97157;-51
2022/01/10 00:57:50;;;;;;;12.30;5.33;;;;;;;6.93;66.98;100714.78;4925328;28;96945;-53
2022/01/10 01:00:16;;;;;;;7.87;4.20;;;;;;;6.92;66.81;100721.50;4921503;28;97495;-53
2022/01/10 01:02:43;;;;;;;8.23;4.80;;;;;;;6.90;66.95;100721.22;4924430;28;97243;-53
2022/01/10 01:05:12;;;;;;;6.20;4.10;;;;;;;6.87;66.96;100729.56;4925297;28;96642;-56
2022/01/10 01:07:38;;;;;;;6.30;4.30;;;;;;;6.84;67.13;100731.25;4925161;28;96731;-53
2022/01/10 01:12:52;;;;;;;7.77;4.57;;;;;;;6.78;67.09;100738.56;4926327;28;101534;-54
2022/01/10 01:15:23;;;;;;;10.57;4.73;;;;;;;6.76;67.09;100741.03;4923229;28;96721;-56
2022/01/10 01:25:56;;;;;;;11.20;3.97;;;;;;;6.77;67.20;100787.03;4924380;28;97121;-53
2022/01/10 01:28:21;;;;;;;7.03;4.13;;;;;;;6.76;67.26;100769.13;4920873;28;97082;-53
2022/01/10 01:30:47;;;;;;;9.23;4.77;;;;;;;6.76;67.20;100768.34;4920818;28;97602;-52
2022/01/10 01:33:14;;;;;;;6.70;4.40;;;;;;;6.74;67.14;100770.81;4921901;28;97351;-53
2022/01/10 01:35:39;;;;;;;9.10;4.53;;;;;;;6.74;66.91;100781.75;4925199;28;97028;-52
2022/01/10 01:38:05;;;;;;;9.43;4.80;;;;;;;6.72;67.15;100784.19;4923920;28;97936;-53
2022/01/10 01:40:32;;;;;;;12.47;4.80;;;;;;;6.69;66.84;100791.31;4920228;28;96881;-53
2022/01/10 01:42:58;;;;;;;9.77;4.30;;;;;;;6.65;66.91;100792.69;4921212;28;97411;-53
2022/01/10 01:45:43;;;;;;;15.10;4.57;;;;;;;6.62;66.62;100799.09;4924672;28;97536;-53
2022/01/10 01:48:09;;;;;;;9.80;4.30;;;;;;;6.60;67.20;100796.06;4919575;28;97198;-52
2022/01/10 01:50:35;;;;;;;6.87;4.03;;;;;;;6.56;66.74;100804.44;4919679;28;96911;-51
2022/01/10 01:53:03;;;;;;;9.67;4.33;;;;;;;6.53;66.87;100802.59;4920805;28;97347;-53
2022/01/10 01:55:28;;;;;;;8.97;4.73;;;;;;;6.52;67.11;100816.75;4913127;28;96938;-54
2022/01/10 01:57:53;;;;;;;12.30;4.60;;;;;;;6.47;66.79;100811.88;4904082;28;116199;-59
2022/01/10 02:00:22;;;;;;;6.90;4.10;;;;;;;6.43;66.81;100812.06;4902045;28;97541;-53
2022/01/10 02:02:48;;;;;;;9.10;4.17;;;;;;;6.42;66.86;100818.00;4908287;28;97368;-53
2022/01/10 02:05:13;;;;;;;8.57;4.40;;;;;;;6.41;66.98;100828.16;4916396;28;97326;-54
2022/01/10 02:07:38;;;;;;;4.27;3.83;;;;;;;6.40;67.00;100825.91;4921140;28;97289;-54
2022/01/10 02:10:05;;;;;;;6.70;3.40;;;;;;;6.36;66.75;100826.03;4918941;28;97340;-56
2022/01/10 02:12:30;;;;;;;8.87;3.80;;;;;;;6.36;66.83;100834.22;4917892;28;97848;-53
2022/01/10 02:14:56;;;;;;;12.27;3.93;;;;;;;6.33;66.91;100834.41;4909188;28;97217;-52
2022/01/10 02:17:24;;;;;;;7.30;4.23;;;;;;;6.30;66.57;100830.59;4901775;28;112887;-53
2022/01/10 02:20:00;;;;;;;5.80;3.53;;;;;;;6.28;66.72;100848.66;4919214;28;97086;-52
2022/01/10 02:22:26;;;;;;;5.53;3.73;;;;;;;6.24;66.79;100848.06;4916562;28;97327;-53
2022/01/10 02:24:52;;;;;;;9.53;4.60;;;;;;;6.21;66.83;100862.63;4919883;28;96872;-53
2022/01/10 02:27:17;;;;;;;5.53;3.87;;;;;;;6.17;66.83;100870.22;4911680;28;97141;-53
2022/01/10 02:29:42;;;;;;;3.77;3.33;;;;;;;6.14;66.80;100873.88;4922170;28;111689;-54
2022/01/10 02:32:07;;;;;;;10.33;4.90;;;;;;;6.10;66.80;100871.28;4923821;28;98860;-51
2022/01/10 02:34:33;;;;;;;4.67;3.50;;;;;;;6.05;66.32;100880.84;4907387;28;96635;-53
2022/01/10 02:37:00;;;;;;;7.50;3.83;;;;;;;6.02;66.91;100879.03;4905183;28;97306;-55
2022/01/10 02:39:25;;;;;;;7.83;4.70;;;;;;;5.97;66.77;100885.09;4913993;28;97177;-52
2022/01/10 02:41:51;;;;;;;7.10;3.77;;;;;;;5.94;66.96;100888.00;4908973;28;97651;-51
2022/01/10 02:44:17;;;;;;;6.97;3.90;;;;;;;5.92;66.68;100888.44;4901416;28;100045;-52
2022/01/10 02:46:45;;;;;;;6.43;3.70;;;;;;;5.91;66.48;100891.63;4903285;28;96881;-51
2022/01/10 02:49:22;;;;;;;6.40;3.40;;;;;;;5.88;66.59;100906.16;4904077;28;97243;-52
2022/01/10 02:51:47;;;;;;;8.47;4.70;;;;;;;5.86;66.70;100911.31;4903386;28;97236;-52
2022/01/10 02:54:14;;;;;;;8.90;3.90;;;;;;;5.83;66.89;100912.22;4902994;28;117115;-53
2022/01/10 02:56:47;;;;;;;7.17;4.50;;;;;;;5.79;66.83;100923.28;4901355;28;97302;-51
2022/01/10 02:59:12;;;;;;;6.23;4.03;;;;;;;5.78;66.88;100926.47;4909282;28;100570;-52
2022/01/10 03:01:37;;;;;;;9.60;4.70;;;;;;;5.75;66.43;100925.38;4904604;28;118602;-52
2022/01/10 03:04:03;;;;;;;8.43;5.07;;;;;;;5.72;66.62;100933.72;4902725;28;97300;-51
2022/01/10 03:06:28;;;;;;;11.20;3.70;;;;;;;5.70;66.83;100933.44;4907494;28;97149;-51
2022/01/10 03:08:53;;;;;;;14.60;4.30;;;;;;;5.68;66.81;100944.03;4901061;28;113916;-51
2022/01/10 03:11:19;;;;;;;6.70;4.40;;;;;;;5.66;66.75;100947.19;4905915;28;97088;-51
2022/01/10 03:13:44;;;;;;;8.47;4.00;;;;;;;5.64;66.87;100955.06;4907332;28;117033;-51
2022/01/10 03:16:09;;;;;;;5.33;3.47;;;;;;;5.63;66.48;100959.03;4904155;28;115602;-51
2022/01/10 03:18:34;;;;;;;11.23;3.80;;;;;;;5.60;66.65;100962.66;4907997;28;110523;-52
2022/01/10 03:21:00;;;;;;;6.57;3.67;;;;;;;5.58;66.64;100969.75;4910348;28;97193;-51
2022/01/10 03:23:25;;;;;;;5.80;3.53;;;;;;;5.55;66.55;100963.22;4908853;28;114815;-51
2022/01/10 03:25:50;;;;;;;6.40;3.40;;;;;;;5.53;66.56;100964.88;4905263;28;97043;-51
2022/01/10 03:28:16;;;;;;;8.33;3.97;;;;;;;5.49;66.30;100970.50;4913954;28;102703;-51
2022/01/10 03:30:41;;;;;;;6.37;3.63;;;;;;;5.46;66.16;100973.38;4921072;28;97363;-51
2022/01/10 03:33:08;;;;;;;8.33;3.73;;;;;;;5.41;66.38;100982.91;4923771;28;98120;-53
2022/01/10 03:35:33;;;;;;;6.10;3.67;;;;;;;5.38;66.38;100981.06;4919769;28;97194;-51
2022/01/10 03:37:59;;;;;;;6.40;4.10;;;;;;;5.36;66.56;100988.16;4900885;28;98532;-52
2022/01/10 03:40:25;;;;;;;4.40;3.10;;;;;;;5.31;66.64;100987.53;4904187;28;125352;-51
2022/01/10 03:42:50;;;;;;;10.10;3.20;;;;;;;5.29;66.47;100994.66;4904717;28;97577;-52
2022/01/10 03:45:15;;;;;;;11.30;3.53;;;;;;;5.29;66.82;101000.09;4903983;28;99511;-51
2022/01/10 03:47:41;;;;;;;5.60;3.27;;;;;;;5.29;66.64;101005.56;4899457;28;97447;-52
2022/01/10 03:50:07;;;;;;;10.53;3.30;;;;;;;5.29;66.77;101008.28;4903428;28;98687;-52
2022/01/10 03:52:33;;;;;;;4.73;3.20;;;;;;;5.29;66.53;101011.00;4900871;28;97195;-52
2022/01/10 03:54:58;;;;;;;4.07;3.10;;;;;;;5.27;66.56;101010.69;4917806;28;97514;-51
2022/01/10 03:57:24;;;;;;;5.67;3.20;;;;;;;5.27;66.34;101010.69;4916828;28;97350;-52
2022/01/10 03:59:49;;;;;;;5.33;3.47;;;;;;;5.26;66.65;101020.09;4913792;28;104013;-51
2022/01/10 04:02:14;;;;;;;7.20;3.10;;;;;;;5.25;66.35;101027.53;4915570;28;117189;-51
2022/01/10 04:04:40;;;;;;;8.90;4.27;;;;;;;5.26;66.60;101028.28;4919688;28;97244;-52
2022/01/10 04:07:06;;;;;;;3.27;2.77;;;;;;;5.26;66.61;101041.94;4920924;28;97350;-52
2022/01/10 04:09:32;;;;;;;7.03;3.70;;;;;;;5.24;66.75;101045.09;4902694;28;97181;-51
2022/01/10 04:11:57;;;;;;;5.93;3.40;;;;;;;5.24;66.54;101047.06;4900363;28;97149;-51
2022/01/10 04:14:23;;;;;;;5.30;3.53;;;;;;;5.22;66.49;101057.66;4903524;28;97517;-55
2022/01/10 04:16:48;;;;;;;5.50;3.40;;;;;;;5.21;66.53;101059.63;4896194;28;98579;-52
2022/01/10 04:19:13;;;;;;;8.33;3.93;;;;;;;5.22;66.49;101065.84;4916337;28;105541;-51
2022/01/10 04:21:38;;;;;;;6.37;3.50;;;;;;;5.19;66.72;101070.22;4918556;28;97074;-52
2022/01/10 04:24:04;;;;;;;6.97;3.37;;;;;;;5.17;66.52;101078.09;4915455;28;100991;-51
2022/01/10 04:26:30;;;;;;;5.33;3.53;;;;;;;5.17;66.44;101080.06;4920577;28;97462;-51
2022/01/10 04:28:55;;;;;;;3.73;2.90;;;;;;;5.14;66.39;101092.59;4922156;28;98394;-51
2022/01/10 04:31:20;;;;;;;9.57;2.97;;;;;;;5.14;66.70;101091.84;4920798;28;100033;-51
2022/01/10 04:33:46;;;;;;;7.07;3.80;;;;;;;5.11;66.26;101090.75;4921865;28;114958;-52
2022/01/10 04:36:11;;;;;;;9.80;3.93;;;;;;;5.05;66.21;101089.81;4920507;28;97459;-54
2022/01/10 04:38:37;;;;;;;6.90;3.30;;;;;;;5.01;66.51;101102.81;4910402;28;97808;-51
2022/01/10 04:41:04;;;;;;;10.40;3.70;;;;;;;4.97;66.34;101102.19;4903705;28;97782;-53
2022/01/10 04:43:29;;;;;;;6.93;2.90;;;;;;;4.94;66.41;101105.00;4902166;28;96964;-51
2022/01/10 04:45:55;;;;;;;6.07;2.83;;;;;;;4.93;66.47;101107.00;4920269;28;97517;-51
2022/01/10 04:48:20;;;;;;;7.30;3.43;;;;;;;4.92;66.38;101118.31;4919653;28;97265;-51
2022/01/10 04:53:30;;;;;;;7.23;4.10;;;;;;;4.93;66.46;101125.31;4920335;28;97155;-51
2022/01/10 04:55:55;;;;;;;7.50;3.23;;;;;;;4.95;66.62;101128.34;4918316;28;98470;-51
2022/01/10 04:58:21;;;;;;;6.17;3.83;;;;;;;4.94;66.76;101130.31;4920006;28;97751;-51
2022/01/10 05:00:46;;;;;;;5.50;3.40;;;;;;;4.96;66.65;101132.59;4921375;28;96809;-51
2022/01/10 05:03:12;;;;;;;9.37;3.40;;;;;;;4.97;66.54;101136.84;4921669;28;100587;-51
2022/01/10 05:05:37;;;;;;;7.33;3.50;;;;;;;4.94;66.54;101135.75;4916919;28;97477;-53
2022/01/10 05:08:03;;;;;;;9.53;3.87;;;;;;;4.92;66.02;101140.91;4924330;28;100005;-52
2022/01/10 05:10:28;;;;;;;6.37;3.77;;;;;;;4.89;66.30;101149.94;4935617;28;97214;-53
2022/01/10 05:12:54;;;;;;;6.60;3.57;;;;;;;4.86;66.43;101141.91;4916223;28;97315;-53
2022/01/10 05:15:19;;;;;;;4.07;3.17;;;;;;;4.84;66.54;101152.47;4913409;28;97483;-51
2022/01/10 05:17:45;;;;;;;7.20;4.10;;;;;;;4.83;66.46;101156.41;4918402;28;100433;-52
2022/01/10 05:20:11;;;;;;;9.03;3.10;;;;;;;4.82;66.54;101166.56;4919563;28;96985;-52
2022/01/10 05:22:37;;;;;;;10.43;3.17;;;;;;;4.82;66.29;101179.41;4922559;28;98043;-52
2022/01/10 05:25:02;;;;;;;6.83;3.37;;;;;;;4.81;66.55;101183.34;4922777;28;97983;-51
2022/01/10 05:27:28;;;;;;;6.40;3.40;;;;;;;4.82;66.37;101180.19;4926339;28;97029;-51
2022/01/10 05:29:53;;;;;;;6.80;3.23;;;;;;;4.81;66.31;101188.78;4924595;28;117100;-52
2022/01/10 05:32:18;;;;;;;3.57;3.00;;;;;;;4.78;66.20;101185.00;4924263;28;107949;-51
2022/01/10 05:34:43;;;;;;;7.90;3.13;;;;;;;4.78;66.38;101195.13;4922988;28;97093;-52
2022/01/10 05:37:09;;;;;;;4.10;2.83;;;;;;;4.75;66.59;101196.75;4926001;28;113551;-52
2022/01/10 05:39:34;;;;;;;4.60;3.20;;;;;;;4.74;66.66;101206.13;4923436;28;97670;-51
2022/01/10 05:41:59;;;;;;;5.50;3.10;;;;;;;4.75;66.37;101212.34;4924829;28;96789;-52
2022/01/10 05:44:25;;;;;;;6.13;3.50;;;;;;;4.75;66.51;101206.91;4926436;28;116060;-52
2022/01/10 05:46:50;;;;;;;8.03;3.50;;;;;;;4.76;66.47;101227.50;4923741;28;97063;-52
2022/01/10 05:49:18;;;;;;;6.27;3.40;;;;;;;4.78;66.65;101225.13;4923917;28;97882;-52
2022/01/10 05:51:44;;;;;;;6.13;2.97;;;;;;;4.80;66.59;101230.88;4919503;28;97365;-51
2022/01/10 05:54:09;;;;;;;8.87;3.70;;;;;;;4.81;66.35;101233.16;4924046;28;97506;-52
2022/01/10 05:56:35;;;;;;;7.03;3.33;;;;;;;4.82;66.27;101237.44;4918676;28;116752;-51
2022/01/10 05:59:01;;;;;;;3.87;3.43;;;;;;;4.79;66.37;101245.69;4925420;28;97091;-52
2022/01/10 06:01:27;;;;;;;4.90;2.77;;;;;;;4.79;66.49;101248.44;4922249;28;97314;-52
2022/01/10 06:03:52;;;;;;;7.70;3.47;;;;;;;4.79;66.70;101253.88;4924016;28;97275;-53
2022/01/10 06:06:17;;;;;;;5.00;2.83;;;;;;;4.78;66.54;101260.53;4922942;28;107983;-51
2022/01/10 06:08:43;;;;;;;6.00;3.10;;;;;;;4.79;66.40;101270.22;4923827;28;97144;-51
2022/01/10 06:11:08;;;;;;;4.30;2.70;;;;;;;4.79;66.54;101276.44;4925345;28;96881;-55
2022/01/10 06:13:33;;;;;;;5.13;2.70;;;;;;;4.79;66.89;101278.41;4922363;28;97075;-52
2022/01/10 06:15:59;;;;;;;11.47;3.47;;;;;;;4.78;66.54;101285.84;4925153;28;100350;-51
2022/01/10 06:18:24;;;;;;;8.90;3.13;;;;;;;4.79;66.66;101290.06;4923535;28;105812;-52
2022/01/10 06:20:50;;;;;;;3.70;2.60;;;;;;;4.79;66.66;101300.97;4923126;28;97350;-51
2022/01/10 06:23:15;;;;;;;8.37;3.97;;;;;;;4.76;66.27;101310.03;4919297;28;103169;-51
2022/01/10 06:25:41;;;;;;;5.70;2.90;;;;;;;4.74;66.42;101306.22;4921002;28;97511;-51
2022/01/10 06:28:08;;;;;;;6.33;2.77;;;;;;;4.74;66.44;101308.94;4921168;28;97540;-52
2022/01/10 06:30:34;;;;;;;7.90;3.30;;;;;;;4.72;66.43;101312.09;4924155;28;98354;-52
2022/01/10 06:33:00;;;;;;;5.43;2.97;;;;;;;4.71;66.55;101332.38;4924154;28;99401;-51
2022/01/10 06:35:25;;;;;;;3.67;3.00;;;;;;;4.69;66.29;101332.06;4918985;28;126386;-51
2022/01/10 06:37:51;;;;;;;9.77;3.43;;;;;;;4.68;66.38;101344.16;4924636;28;96959;-51
2022/01/10 06:40:17;;;;;;;4.20;3.17;;;;;;;4.69;66.58;101351.13;4923561;28;99210;-51
2022/01/10 06:42:43;;;;;;;11.33;3.17;;;;;;;4.70;66.46;101360.06;4921991;28;97230;-51
2022/01/10 06:45:09;;;;;;;5.57;3.23;;;;;;;4.71;66.59;101359.63;4923297;28;97272;-52
2022/01/10 06:47:35;;;;;;;5.80;3.13;;;;;;;4.72;66.39;101371.31;4920663;28;96945;-52
2022/01/10 06:50:00;;;;;;;5.50;3.57;;;;;;;4.73;66.50;101378.28;4924003;28;97090;-51
2022/01/10 06:52:25;;;;;;;6.73;3.60;;;;;;;4.75;66.59;101392.22;4920026;28;97269;-52
2022/01/10 06:54:51;;;;;;;5.40;3.20;;;;;;;4.74;66.77;101404.34;4925097;28;108120;-51
2022/01/10 06:57:16;;;;;;;5.33;3.40;;;;;;;4.66;66.80;101395.59;4921670;28;98357;-53
2022/01/10 06:59:42;;;;;;;8.17;4.20;;;;;;;4.61;66.88;101404.28;4924363;28;97442;-52
2022/01/10 07:02:08;;;;;;;7.83;3.93;;;;;;;4.67;67.02;101413.50;4924825;28;97145;-50
2022/01/10 07:04:33;;;;;;;7.23;3.40;;;;;;;4.72;66.92;101423.84;4919004;28;122719;-51
2022/01/10 07:06:59;;;;;;;10.43;4.00;;;;;;;4.74;67.11;101424.16;4923747;28;97173;-52
2022/01/10 07:09:24;;;;;;;5.30;3.90;;;;;;;4.81;66.72;101428.66;4922680;28;97105;-51
2022/01/10 07:11:49;;;;;;;9.37;4.50;;;;;;;4.81;66.83;101440.31;4924983;28;97238;-52
2022/01/10 07:14:16;;;;;;;5.93;3.53;;;;;;;4.84;66.80;101433.25;4919862;28;98717;-52
2022/01/10 07:16:43;;;;;;;4.43;3.20;;;;;;;4.87;66.84;101437.84;4921620;28;97143;-52
2022/01/10 07:19:08;;;;;;;5.03;3.60;;;;;;;4.93;67.02;101449.72;4926269;28;97357;-51
2022/01/10 07:21:37;;;;;;;8.90;3.20;;;;;;;4.98;67.02;101455.41;4922321;28;97976;-51
2022/01/10 07:24:03;;;;;;;4.43;3.20;;;;;;;5.03;67.06;101460.31;4924558;28;97336;-52
2022/01/10 07:26:29;;;;;;;5.10;3.27;;;;;;;5.04;66.81;101472.00;4922244;28;97038;-52
2022/01/10 07:28:54;;;;;;;6.50;4.10;;;;;;;5.06;66.80;101478.56;4924196;28;96988;-52
2022/01/10 07:31:19;;;;;;;6.50;3.37;;;;;;;5.07;67.10;101479.31;4920632;28;97182;-51
2022/01/10 07:33:45;;;;;;;6.20;3.30;;;;;;;5.11;66.89;101494.38;4922428;28;120181;-52
2022/01/10 07:36:10;;;;;;;5.60;3.40;;;;;;;5.16;66.93;101495.78;4918084;28;98382;-52
2022/01/10 07:38:36;;;;;;;5.73;3.13;;;;;;;5.22;67.04;101505.00;4919498;28;118121;-51
2022/01/10 07:41:06;;;;;;;5.03;3.80;;;;;;;5.25;67.04;101502.16;4925616;28;98087;-52
2022/01/10 07:43:32;;;;;;;4.90;3.40;;;;;;;5.28;67.11;101514.94;4918188;28;99351;-52
2022/01/10 07:45:57;;;;;;;6.63;3.10;;;;;;;5.31;66.85;101516.78;4923717;28;96698;-53
2022/01/10 07:48:24;;;;;;;4.20;3.30;;;;;;;5.33;66.83;101519.81;4920272;28;98463;-51
2022/01/10 07:50:49;;;;;;;5.83;3.17;;;;;;;5.36;66.86;101526.38;4922989;28;97357;-51
2022/01/10 07:53:14;;;;;;;4.43;3.10;;;;;;;5.38;67.16;101532.16;4919493;28;121458;-51
2022/01/10 07:55:40;;;;;;;6.60;3.53;;;;;;;5.41;66.88;101536.78;4923237;28;108427;-53
2022/01/10 07:58:05;;;;;;;5.50;3.50;;;;;;;5.43;67.29;101544.50;4923223;28;117931;-52
2022/01/10 08:00:30;;;;;;;5.73;3.10;;;;;;;5.44;66.90;101546.78;4918370;28;112982;-52
2022/01/10 08:02:56;;;;;;;5.93;3.30;;;;;;;5.47;66.97;101558.81;4925967;28;97065;-51
2022/01/10 08:05:21;;;;;;;8.80;4.63;;;;;;;5.50;67.04;101555.22;4914582;28;101878;-52
2022/01/10 08:07:46;;;;;;;12.13;6.00;;;;;;;5.53;67.13;101570.72;4923211;28;112325;-52
2022/01/10 08:10:12;;;;;;;16.60;8.77;;;;;;;5.54;66.92;101573.03;4918445;28;102407;-51
2022/01/10 08:12:37;;;;;;;11.90;6.30;;;;;;;5.57;66.90;101574.13;4918061;28;96889;-51
2022/01/10 08:15:03;;;;;;;13.17;5.73;;;;;;;5.62;67.32;101579.78;4920027;28;96989;-52
2022/01/10 08:17:29;;;;;;;13.23;6.10;;;;;;;5.68;67.16;101580.78;4919194;28;98224;-52
2022/01/10 08:19:54;;;;;;;9.13;5.07;;;;;;;5.71;67.07;101585.38;4918692;28;97901;-52
2022/01/10 08:22:19;;;;;;;7.57;5.03;;;;;;;5.76;66.98;101586.81;4917120;28;97126;-52
2022/01/10 08:24:45;;;;;;;7.13;5.20;;;;;;;5.81;67.23;101589.00;4920884;28;101020;-52
2022/01/10 08:27:10;;;;;;;10.73;4.47;;;;;;;5.83;67.14;101600.25;4916978;28;97293;-53
2022/01/10 08:29:36;;;;;;;8.27;4.77;;;;;;;5.88;67.13;101608.69;4921490;28;98345;-52
2022/01/10 08:32:01;;;;;;;5.60;4.17;;;;;;;5.91;66.91;101613.28;4918656;28;97317;-52
2022/01/10 08:34:26;;;;;;;8.60;4.47;;;;;;;5.94;67.27;101617.84;4919055;28;97963;-52
2022/01/10 08:36:52;;;;;;;8.70;4.73;;;;;;;6.00;67.27;101631.75;4920708;28;121893;-53
2022/01/10 08:39:19;;;;;;;7.33;4.13;;;;;;;6.04;66.95;101626.94;4915793;28;97420;-53
2022/01/10 08:41:44;;;;;;;13.33;4.93;;;;;;;6.10;66.94;101638.06;4922392;28;97188;-52
2022/01/10 08:44:09;;;;;;;8.27;4.43;;;;;;;6.11;67.12;101634.91;4913346;28;102708;-52
2022/01/10 08:46:35;;;;;;;7.03;4.10;;;;;;;6.16;67.10;101650.00;4919754;28;97500;-52
2022/01/10 08:49:01;;;;;;;10.37;5.47;;;;;;;6.19;67.47;101647.13;4919552;28;97622;-52
2022/01/10 08:51:27;;;;;;;7.80;3.70;;;;;;;6.25;67.21;101652.81;4921567;28;98607;-52
2022/01/10 08:53:53;;;;;;;7.20;5.10;;;;;;;6.29;67.16;101658.97;4918494;28;97094;-52
2022/01/10 08:56:18;;;;;;;9.97;4.10;;;;;;;6.35;67.18;101659.94;4921667;28;111840;-52
2022/01/10 08:58:43;;;;;;;8.77;4.20;;;;;;;6.39;67.25;101661.34;4923268;28;126806;-52
2022/01/10 09:01:09;;;;;;;13.30;5.03;;;;;;;6.44;67.17;101662.78;4920127;28;100169;-53
2022/01/10 09:03:35;;;;;;;7.17;4.30;;;;;;;6.49;67.32;101670.41;4922449;28;122717;-52
2022/01/10 09:06:01;;;;;;;7.43;4.70;;;;;;;6.54;67.31;101669.84;4923316;28;97049;-52
2022/01/10 09:08:32;;;;;;;11.17;5.40;;;;;;;6.59;67.55;101672.03;4923301;28;98344;-52
2022/01/10 09:10:57;;;;;;;9.97;5.33;;;;;;;6.64;67.62;101668.75;4921855;28;98374;-52
2022/01/10 09:13:23;;;;;;;11.53;5.20;;;;;;;6.71;67.15;101679.44;4922833;28;97099;-52
2022/01/10 09:15:48;;;;;;;12.80;6.47;;;;;;;6.75;67.18;101689.06;4924104;28;102169;-51
2022/01/10 09:18:14;;;;;;;15.30;6.30;;;;;;;6.79;67.25;101694.44;4920831;28;98720;-52
2022/01/10 09:20:40;;;;;;;17.20;6.63;;;;;;;6.84;67.19;101701.31;4922257;28;97293;-52
2022/01/10 09:23:06;;;;;;;9.87;6.53;;;;;;;6.87;66.92;101703.16;4921401;28;96897;-52
2022/01/10 09:25:32;;;;;;;11.17;6.03;;;;;;;6.89;67.35;101700.75;4924216;28;121603;-52
2022/01/10 09:27:57;;;;;;;17.20;5.97;;;;;;;6.94;67.18;101713.88;4921998;28;97663;-52
2022/01/10 09:30:23;;;;;;;12.87;6.03;;;;;;;6.97;67.30;101711.00;4921874;28;97253;-52
2022/01/10 09:32:48;;;;;;;13.87;5.00;;;;;;;7.04;67.08;101710.78;4923797;28;96848;-52
2022/01/10 09:35:14;;;;;;;16.60;6.17;;;;;;;7.11;67.55;101720.72;4920682;28;96788;-52
2022/01/10 09:37:39;;;;;;;13.03;5.33;;;;;;;7.17;67.31;101725.19;4921270;28;114389;-53
2022/01/10 09:40:06;;;;;;;9.83;5.60;;;;;;;7.25;67.42;101733.94;4919592;28;97227;-52
2022/01/10 09:42:32;;;;;;;10.37;6.37;;;;;;;7.27;67.27;101728.78;4922122;28;96821;-52
2022/01/10 09:44:57;;;;;;;14.23;6.03;;;;;;;7.30;67.62;101731.41;4918511;28;97035;-52
2022/01/10 09:47:22;;;;;;;11.80;5.60;;;;;;;7.35;67.19;101733.56;4921093;28;97668;-52
2022/01/10 09:49:48;;;;;;;9.53;5.47;;;;;;;7.37;67.55;101738.59;4921414;28;96912;-52
2022/01/10 09:52:15;;;;;;;15.63;6.17;;;;;;;7.34;67.24;101742.97;4917992;28;124959;-52
2022/01/10 09:54:41;;;;;;;13.60;6.53;;;;;;;7.31;67.60;101745.84;4941287;28;97778;-52
2022/01/10 09:57:06;;;;;;;17.70;6.73;;;;;;;7.31;67.25;101743.13;4921111;28;98123;-52
2022/01/10 09:59:31;;;;;;;8.30;5.37;;;;;;;7.30;67.55;101747.81;4922256;28;103442;-52
2022/01/10 10:01:57;;;;;;;9.20;5.50;;;;;;;7.31;67.63;101748.59;4920210;28;105974;-52
2022/01/10 10:04:22;;;;;;;25.73;6.53;;;;;;;7.32;67.19;101761.81;4920822;28;96990;-52
2022/01/10 10:06:48;;;;;;;11.20;6.30;;;;;;;7.31;67.44;101757.56;4917918;28;127934;-52
2022/01/10 10:09:13;;;;;;;9.23;5.93;;;;;;;7.31;67.22;101765.78;4918401;28;97367;-52
2022/01/10 10:11:48;;;;;;;16.10;6.17;;;;;;;7.32;67.34;101772.00;4922343;28;96849;-52
2022/01/10 10:14:17;;;;;;;14.50;6.30;;;;;;;7.34;67.48;101775.06;4917087;28;96969;-52
2022/01/10 10:16:49;;;;;;;10.87;5.60;;;;;;;7.33;67.61;101779.78;4922578;28;97543;-53
2022/01/10 10:19:27;;;;;;;13.63;5.17;;;;;;;7.36;67.74;101795.31;4920146;28;97243;-52
2022/01/10 10:21:54;;;;;;;8.77;5.13;;;;;;;7.42;67.55;101798.28;4922111;28;96819;-52
2022/01/10 10:24:20;;;;;;;13.17;6.43;;;;;;;7.45;67.45;101805.59;4923913;28;97427;-52
2022/01/10 10:26:46;;;;;;;15.77;5.77;;;;;;;7.48;67.58;101807.44;4918423;28;97891;-52
2022/01/10 10:29:17;;;;;;;10.83;6.40;;;;;;;7.51;67.64;101823.75;4920338;28;100956;-52
2022/01/10 10:31:48;;;;;;;16.00;6.70;;;;;;;7.56;67.73;101825.16;4919903;28;97590;-52
2022/01/10 10:34:19;;;;;;;13.90;6.20;;;;;;;7.61;67.91;101837.53;4921978;28;97447;-52
2022/01/10 10:36:46;;;;;;;15.83;6.17;;;;;;;7.64;67.67;101822.97;4916745;28;96753;-52
2022/01/10 10:39:11;;;;;;;15.83;6.10;;;;;;;7.74;67.86;101841.00;4921872;28;97066;-53
2022/01/10 10:41:38;;;;;;;9.40;5.33;;;;;;;7.86;67.73;101837.47;4921476;28;97127;-52
2022/01/10 10:44:05;;;;;;;16.67;6.37;;;;;;;7.96;67.82;101844.53;4919314;28;97043;-52
2022/01/10 10:46:31;;;;;;;13.27;5.90;;;;;;;8.00;67.36;101843.19;4920956;28;98367;-52
2022/01/10 10:49:05;;;;;;;11.07;5.80;;;;;;;8.07;67.57;101845.69;4918401;28;98000;-52
2022/01/10 10:51:32;;;;;;;12.27;5.80;;;;;;;8.13;67.59;101845.88;4921755;28;96874;-52
2022/01/10 10:54:06;;;;;;;18.23;6.17;;;;;;;8.16;67.36;101851.25;4917673;28;98212;-52
2022/01/10 10:56:33;;;;;;;17.07;7.07;;;;;;;8.19;67.52;101855.06;4919369;28;97517;-52
2022/01/10 10:58:59;;;;;;;12.47;6.60;;;;;;;8.20;67.39;101862.06;4922062;28;96945;-52
2022/01/10 11:01:24;;;;;;;13.67;7.03;;;;;;;8.19;67.46;101857.81;4919052;28;97465;-52
2022/01/10 11:03:50;;;;;;;13.67;7.00;;;;;;;8.20;67.42;101859.34;4918830;28;97527;-52
2022/01/10 11:06:16;;;;;;;15.17;6.70;;;;;;;8.21;67.35;101864.38;4916836;28;99160;-52
2022/01/10 11:08:43;;;;;;;13.93;6.83;;;;;;;8.25;67.48;101854.09;4920775;28;98594;-52
2022/01/10 11:11:13;;;;;;;12.60;6.50;;;;;;;8.31;67.55;101865.22;4921530;28;97654;-52
2022/01/10 11:13:39;;;;;;;14.53;6.43;;;;;;;8.35;67.67;101860.38;4919478;28;97460;-52
2022/01/10 11:16:05;;;;;;;15.33;7.53;;;;;;;8.40;67.54;101865.28;4919103;28;97070;-53
2022/01/10 11:18:32;;;;;;;17.30;7.23;;;;;;;8.45;67.66;101864.72;4916629;28;97092;-52
2022/01/10 11:20:58;;;;;;;15.40;6.87;;;;;;;8.48;67.36;101872.03;4922321;28;97141;-52
2022/01/10 11:23:23;;;;;;;16.20;6.13;;;;;;;8.50;67.39;101868.84;4919021;28;102797;-52
2022/01/10 11:25:49;;;;;;;11.47;6.10;;;;;;;8.53;67.32;101885.19;4920743;28;96977;-52
2022/01/10 11:28:25;;;;;;;24.60;7.80;;;;;;;8.57;67.52;101874.06;4918383;28;97298;-53
2022/01/10 11:30:58;;;;;;;23.20;7.47;;;;;;;8.60;67.42;101882.19;4919910;28;97619;-53
2022/01/10 11:33:32;;;;;;;9.07;6.20;;;;;;;8.63;67.28;101896.97;4922741;28;96853;-53
2022/01/10 11:36:08;;;;;;;14.67;6.80;;;;;;;8.64;67.39;101891.03;4916706;28;97334;-52
2022/01/10 11:38:41;;;;;;;20.67;7.20;;;;;;;8.65;67.33;101892.56;4920775;28;97060;-52